Station KMXA2 - Kodiak Matson Crane, AK Image indicating link to RSS feed of recent meteorological observations for station KMXA2


Conditions at KMXA2 as of
(10:24 am AKDT)
1824 GMT on 04/13/2024:
     

Click on the graph icon in the table below to see a time series plot of the last five days of that observation.

5-day plot - Wind Direction Wind Direction (WDIR):SSE ( 150 deg true )
5-day plot - Wind Speed Wind Speed (WSPD): 7 kts
5-day plot - Wind Gust Wind Gust (GST): 19 kts
5-day plot - Air Temperature Air Temperature (ATMP): 30.0 °F
5-day plot - Dew Point Dew Point (DEWP): 18.7 °F
5-day plot - Wind Chill Wind Chill (CHILL): 22.5 °F
5-day plot - Wind Speed at 10 Meters Wind Speed at 10 meters (WSPD10M): 6 kts
5-day plot - Wind Speed at 20 Meters Wind Speed at 20 meters (WSPD20M): 6 kts
5-day plot -  Wind Speed, Wind Gust and Atmospheric Pressure Combined plot of Wind Speed, Gust, and Air Pressure
Previous observations
TIME
(AKDT)
5-day plot - Wind Direction
WDIR
 
5-day plot - Wind Speed
WSPD
kts
5-day plot - Wind Gust
GST
kts
5-day plot - Wave Height
WVHT
ft
5-day plot - Dominant Wave Period
DPD
sec
5-day plot - Average Wave Period
APD
sec
5-day plot - Mean Wave Direction
MWD
 
5-day plot - Atmospheric Pressure
PRES
in
5-day plot - Pressure Tendency
PTDY
in
5-day plot - Air Temperature
ATMP
°F
5-day plot - Water Temperature
WTMP
°F
5-day plot - Dew Point
DEWP
°F
5-day plot - Salinity
SAL
psu
5-day plot - Visibility
VIS
nmi
5-day plot - Tide (above MLLW)
TIDE
ft
2024-04-13 10:14 am S 9 21------ 29.7- 18.7---
2024-04-13 10:04 amSSW 12 19------ 29.3- 18.7---
2024-04-13 09:54 amSSW 10 21------ 29.3- 18.7---
2024-04-13 09:44 amSSW 9 21------ 29.3- 18.9---
2024-04-13 09:34 amSSW 9 20------ 29.1- 18.9---
2024-04-13 09:24 amSSW 10 22------ 28.8- 18.9---
2024-04-13 09:14 am SW 12 17------ 28.8- 18.9---
2024-04-13 09:04 am SW 13 18------ 28.6- 18.9---
2024-04-13 08:54 amSSW 12 20------ 28.6- 18.9---
2024-04-13 08:44 am SW 11 17------ 28.4- 18.9---
2024-04-13 08:34 amSSW 11 17------ 28.6- 19.0---
2024-04-13 08:24 am SW 13 17------ 28.6- 18.9---
2024-04-13 08:14 amSSW 13 19------ 28.6- 19.2---
2024-04-13 08:04 amSSW 8 17------ 28.9- 19.6---
2024-04-13 07:54 am S 4 11------ 29.3- 19.8---
2024-04-13 07:44 amSSW 4 14------ 29.5- 19.8---
2024-04-13 07:34 am S 3 8------ 29.5- 20.1---
2024-04-13 07:24 amSSW 4 15------ 29.5- 20.3---
2024-04-13 07:04 amSSW 9 16------ 29.3- 20.7---
2024-04-13 06:54 amSSW 10 17------ 29.5- 20.7---
2024-04-13 06:44 am SW 9 20------ 29.5- 21.0---
2024-04-13 06:34 amSSW 11 28------ 29.5- 21.4---
2024-04-13 06:24 amSSW 8 17------ 29.7- 21.4---
2024-04-13 06:14 amSSW 6 16------ 29.7- 21.4---
2024-04-13 06:04 amSSW 4 14------ 29.7- 21.4---
2024-04-13 05:54 amSSW 5 13------ 29.7- 21.4---
2024-04-13 05:44 amSSW 8 20------ 29.7- 21.0---
2024-04-13 05:34 amSSW 10 22------ 29.8- 21.2---
2024-04-13 05:24 amSSW 10 25------ 29.8- 21.2---
2024-04-13 05:14 amSSW 9 20------ 29.8- 21.2---
2024-04-13 05:04 amSSW 4 13------ 30.2- 21.6---
2024-04-13 04:54 am NE 3 6------ 30.2- 21.6---
2024-04-13 04:44 am NW 3 7------ 30.0- 21.7---
2024-04-13 04:34 am S 5 13------ 30.0- 21.4---
2024-04-13 04:24 amSSW 11 26------ 29.8- 21.2---
2024-04-13 04:14 amSSW 14 28------ 29.7- 21.4---
2024-04-13 04:04 amSSW 17 28------ 29.7- 21.6---
2024-04-13 03:54 amSSW 18 32------ 29.7- 21.6---
2024-04-13 03:44 amSSW 19 33------ 29.5- 21.9---
2024-04-13 03:34 amSSW 17 30------ 29.5- 21.9---
2024-04-13 03:24 am SW 10 23------ 29.8- 22.1---
2024-04-13 03:14 am SW 5 14------ 29.8- 22.3---
2024-04-13 03:04 am S 6 19------ 30.0- 22.1---
2024-04-13 02:54 am S 7 21------ 30.0- 22.1---
2024-04-13 02:44 am S 8 22------ 30.2- 21.9---
2024-04-13 02:34 am SW 17 27------ 30.2- 21.9---
2024-04-13 02:24 am SW 18 27------ 30.2- 21.9---
2024-04-13 02:14 am SW 16 31------ 30.4- 21.7---
2024-04-13 02:04 am SW 17 27------ 30.6- 21.6---
2024-04-13 01:54 am SW 17 28------ 30.7- 21.7---
2024-04-13 01:44 am SW 16 27------ 30.9- 21.7---
2024-04-13 01:34 am SW 16 24------ 30.9- 21.9---
2024-04-13 01:24 am SW 15 25------ 31.1- 21.9---
2024-04-13 01:04 amSSW 12 25------ 31.1- 21.6---
2024-04-13 12:54 amSSW 10 22------ 31.3- 21.4---
2024-04-13 12:44 amSSW 9 20------ 31.3- 21.2---
2024-04-13 12:34 amSSW 8 16------ 31.5- 21.0---
2024-04-13 12:24 amSSW 8 19------ 31.5- 21.0---
2024-04-13 12:15 amSSW 11 24------ 31.6- 20.8---
2024-04-13 12:04 amSSW 9 21------ 31.6- 21.2---
2024-04-12 11:54 pm SW 12 22------ 31.6- 21.2---
2024-04-12 11:44 pm SW 14 23------ 31.8- 21.4---
2024-04-12 11:34 pmSSW 10 24------ 31.8- 21.7---
2024-04-12 11:24 pmSSW 11 19------ 31.8- 22.1---
2024-04-12 11:14 pmSSW 9 15------ 32.0- 21.9---
2024-04-12 11:04 pm SW 8 15------ 32.0- 21.9---
2024-04-12 10:54 pmSSW 14 20------ 32.0- 21.7---
2024-04-12 10:44 pm SW 13 18------ 32.0- 21.7---
2024-04-12 10:34 pm SW 14 18------ 32.2- 21.7---
2024-04-12 10:24 pm SW 10 16------ 32.2- 21.6---
2024-04-12 10:14 pm SW 7 13------ 32.4- 21.7---
2024-04-12 10:04 pmSSW 5 14------ 32.5- 21.9---
2024-04-12 09:54 pmSSW 6 13------ 32.7- 21.7---
2024-04-12 09:44 pmSSW 7 14------ 32.9- 21.4---
2024-04-12 09:34 pmSSW 5 11------ 32.9- 20.7---
2024-04-12 09:24 pm SW 6 14------ 32.9- 20.5---
2024-04-12 09:14 pmSSW 6 14------ 33.1- 20.1---
2024-04-12 09:04 pmSSW 3 10------ 33.1- 20.8---
2024-04-12 08:54 pmSSW 4 11------ 33.3- 21.0---
2024-04-12 08:44 pm S 5 14------ 33.3- 21.2---
2024-04-12 08:34 pmSSW 6 16------ 33.3- 21.0---
2024-04-12 08:24 pmSSW 10 23------ 33.4- 20.8---
2024-04-12 08:14 pm SW 10 20------ 33.6- 20.7---
2024-04-12 08:04 pm SW 9 21------ 33.8- 20.1---
2024-04-12 07:54 pm SW 11 22------ 34.2- 19.8---
2024-04-12 07:44 pmSSW 12 22------ 34.3- 19.6---
2024-04-12 07:34 pmSSW 14 26------ 34.5- 19.4---
2024-04-12 07:24 pmSSW 13 26------ 34.7- 19.8---
2024-04-12 07:14 pm SW 13 32------ 35.1- 19.9---
2024-04-12 07:04 pmSSW 11 26------ 35.6- 21.2---
2024-04-12 06:54 pmSSW 10 26------ 35.8- 21.7---
2024-04-12 06:44 pmSSW 11 24------ 35.6- 22.1---
2024-04-12 06:34 pmSSW 12 30------ 35.6- 22.3---
2024-04-12 06:24 pmSSW 12 34------ 36.0- 22.5---
2024-04-12 06:14 pmSSW 11 27------ 36.3- 22.8---
2024-04-12 06:04 pmSSW 12 25------ 36.3- 23.2---
2024-04-12 05:54 pmSSW 13 31------ 36.5- 22.6---
2024-04-12 05:44 pmSSW 13 30------ 36.7- 23.2---
2024-04-12 05:34 pmSSW 11 25------ 36.9- 23.5---
2024-04-12 05:24 pmSSW 15 28------ 36.9- 23.7---
2024-04-12 05:14 pmSSW 12 28------ 37.2- 24.1---
2024-04-12 05:04 pmSSW 12 27------ 37.2- 24.6---
2024-04-12 04:54 pmSSW 10 23------ 37.4- 25.0---
2024-04-12 04:34 pm S 8 22------ 37.6- 24.8---
2024-04-12 04:24 pmSSW 8 23------ 37.4- 25.0---
2024-04-12 04:14 pmSSW 8 22------ 37.2- 24.8---
2024-04-12 03:54 pmSSW 11 25------ 37.6- 25.2---
2024-04-12 03:44 pmSSW 10 21------ 37.8- 25.9---
2024-04-12 03:34 pmSSW 8 20------ 38.3- 27.0---
2024-04-12 03:24 pm S 7 20------ 38.1- 27.7---
2024-04-12 03:14 pm S 7 18------ 38.1- 28.0---
2024-04-12 03:04 pm S 7 23------ 38.5- 27.9---
2024-04-12 02:54 pm S 5 16------ 38.5- 27.9---
2024-04-12 02:44 pm SW 8 21------ 37.9- 27.7---
2024-04-12 02:34 pmSSW 8 21------ 38.1- 28.6---
2024-04-12 02:25 pm S 7 19------ 37.0- 28.2---
2024-04-12 02:14 pmSSW 7 18------ 36.7- 28.4---
2024-04-12 02:04 pmSSW 8 20------ 37.4- 29.7---
2024-04-12 01:54 pmSSW 7 15------ 37.4- 30.9---
2024-04-12 01:44 pm S 5 12------ 37.0- 31.6---
2024-04-12 01:34 pmSSW 8 14------ 36.1- 32.0---
2024-04-12 01:24 pmSSW 4 10------ 36.3- 32.9---
2024-04-12 01:04 pmSSW 5 9------ 36.0- 32.7---
2024-04-12 12:54 pmSSW 7 13------ 35.8- 32.4---
2024-04-12 12:44 pm SW 10 13------ 36.3- 32.0---
2024-04-12 12:34 pm SW 9 11------ 36.5- 32.0---
2024-04-12 12:24 pm SW 9 12------ 37.2- 31.6---
2024-04-12 12:14 pm SW 7 10------ 38.1- 31.3---
2024-04-12 12:04 pmSSW 5 9------ 38.7- 30.6---
2024-04-12 11:54 am SW 7 12------ 38.7- 30.4---
2024-04-12 11:44 am SW 9 12------ 38.7- 30.0---
2024-04-12 11:34 amSSW 5 14------ 39.4- 29.8---
2024-04-12 11:24 am- 0 3------ 39.6- 30.2---
2024-04-12 11:14 am W 4 8------ 38.8- 29.8---
2024-04-12 11:04 amWSW 5 9------ 38.8- 29.8---
2024-04-12 10:54 amWSW 8 12------ 38.7- 29.7---
2024-04-12 10:44 am SW 6 11------ 38.7- 29.8---
2024-04-12 10:34 amSSW 4 10------ 38.5- 29.8---
2024-04-12 10:24 am SW 7 11------ 38.3- 29.5---
2024-04-12 10:14 am SW 9 14------ 38.3- 29.3---
2024-04-12 10:04 am SW 9 16------ 38.8- 28.8---
2024-04-12 09:54 am SW 11 16------ 39.2- 28.2---